ADDS METAR Data INFO
IDs: Format: Raw Decoded Include TAF

Data at: 0936 UTC 19 Jul 2018

METAR for:KFFO (Wright-Patterson AFB, OH, US)
Text:KFFO 190856Z AUTO 10005KT 10SM CLR 19/12 A3006 RMK AO2 SLP177 T01860123 55002
Temperature: 18.6°C ( 65°F)
Dewpoint: 12.3°C ( 54°F) [RH = 67%]
Pressure (altimeter):30.06 inches Hg (1018.0 mb) [Sea level pressure: 1017.7 mb]
Winds:from the E (100 degrees) at 6 MPH (5 knots; 2.6 m/s)
Visibility:10 or more sm (16+ km)
Ceiling:at least 12,000 feet AGL
Clouds:sky clear below 12,000 feet AGL
QC Flag:automated observation with no human augmentation